Time;durP1;ratioP1;P1;durP2;ratioP2;P2;SDS_P1;SDS_P2;PMS_P1;PMS_P2;Temp;Humidity;BMP_temperature;BMP_pressure;BME280_temperature;BME280_humidity;BME280_pressure;Samples;Min_cycle;Max_cycle;Signal;HPM_P1;HPM_P2
2022/12/25 00:00:33;;;;;;;33.08;10.02;;;6.90;99.90;;;;;;5079698;28;20530;-89
2022/12/25 00:02:59;;;;;;;28.42;9.10;;;7.00;99.90;;;;;;5096013;28;20110;-90
2022/12/25 00:05:25;;;;;;;22.10;8.15;;;7.00;99.90;;;;;;5104192;28;20118;-90
2022/12/25 00:07:50;;;;;;;28.83;9.60;;;7.00;99.90;;;;;;5114606;28;20458;-89
2022/12/25 00:10:16;;;;;;;29.88;8.52;;;6.90;99.90;;;;;;5112931;27;20036;-89
2022/12/25 00:12:42;;;;;;;30.90;9.48;;;6.90;99.90;;;;;;5111935;27;20047;-89
2022/12/25 00:15:08;;;;;;;27.42;9.27;;;6.90;99.90;;;;;;5116440;27;20047;-89
2022/12/25 00:17:34;;;;;;;27.92;8.73;;;6.90;99.90;;;;;;5134308;27;20039;-89
2022/12/25 00:19:59;;;;;;;24.10;8.90;;;6.90;99.90;;;;;;5124916;27;20034;-89
2022/12/25 00:22:25;;;;;;;31.35;8.60;;;6.90;99.90;;;;;;5126632;27;20508;-88
2022/12/25 00:24:51;;;;;;;25.35;8.35;;;7.00;99.90;;;;;;5124311;27;20046;-89
2022/12/25 00:27:16;;;;;;;25.30;7.93;;;6.90;99.90;;;;;;5116436;27;20051;-89
2022/12/25 00:29:42;;;;;;;27.30;8.48;;;7.00;99.90;;;;;;5096902;28;20130;-89
2022/12/25 00:32:08;;;;;;;20.75;7.35;;;6.90;99.90;;;;;;5094861;28;20507;-89
2022/12/25 00:34:33;;;;;;;20.90;7.60;;;6.90;99.90;;;;;;5098499;27;20035;-89
2022/12/25 00:36:59;;;;;;;26.17;8.57;;;6.90;99.90;;;;;;5115710;27;20041;-89
2022/12/25 00:39:25;;;;;;;23.75;9.20;;;6.90;99.90;;;;;;5116052;27;20035;-89
2022/12/25 00:44:36;;;;;;;23.13;8.63;;;6.90;99.90;;;;;;5095999;28;20044;-89
2022/12/25 00:47:01;;;;;;;26.58;8.48;;;6.90;99.90;;;;;;5117082;27;20518;-89
2022/12/25 00:49:27;;;;;;;28.77;8.13;;;6.90;99.90;;;;;;5099767;28;20532;-89
2022/12/25 00:51:53;;;;;;;29.92;8.68;;;7.00;99.90;;;;;;5113783;28;20122;-88
2022/12/25 00:54:19;;;;;;;33.97;9.38;;;7.00;99.90;;;;;;5105804;27;20039;-89
2022/12/25 00:56:45;;;;;;;25.17;8.98;;;7.00;99.90;;;;;;5115958;27;20078;-89
2022/12/25 00:59:11;;;;;;;24.92;9.02;;;7.00;99.90;;;;;;5115845;27;20088;-88
2022/12/25 01:01:37;;;;;;;23.50;8.00;;;7.00;99.90;;;;;;5120243;27;20030;-89
2022/12/25 01:04:03;;;;;;;26.88;7.57;;;7.00;99.90;;;;;;5115267;27;20074;-89
2022/12/25 01:06:29;;;;;;;22.83;8.32;;;7.00;99.90;;;;;;5116497;27;20126;-88
2022/12/25 01:11:39;;;;;;;23.50;7.68;;;7.00;99.90;;;;;;5120119;27;20048;-89
2022/12/25 01:14:05;;;;;;;25.80;8.18;;;7.00;99.90;;;;;;5124052;27;20038;-89
2022/12/25 01:16:31;;;;;;;31.83;8.35;;;7.00;99.90;;;;;;5126275;27;20089;-89
2022/12/25 01:18:56;;;;;;;27.40;8.13;;;7.10;99.90;;;;;;5133367;27;20080;-88
2022/12/25 01:21:22;;;;;;;29.13;8.98;;;7.10;99.90;;;;;;5115112;27;20039;-88
2022/12/25 01:23:49;;;;;;;24.77;8.38;;;7.10;99.90;;;;;;5111764;27;20045;-89
2022/12/25 01:26:16;;;;;;;27.92;8.57;;;7.10;99.90;;;;;;5103150;27;20102;-89
2022/12/25 01:28:42;;;;;;;22.58;7.80;;;7.10;99.90;;;;;;5132256;27;20046;-89
2022/12/25 01:31:10;;;;;;;27.58;8.35;;;7.10;99.90;;;;;;5117888;27;20035;-89
2022/12/25 01:33:37;;;;;;;27.45;8.63;;;7.20;99.90;;;;;;5133154;27;20039;-89
2022/12/25 01:36:11;;;;;;;27.05;8.73;;;7.20;99.90;;;;;;5106093;27;20086;-89
2022/12/25 01:38:36;;;;;;;29.50;9.40;;;7.20;99.90;;;;;;5133440;27;20484;-89
2022/12/25 01:41:02;;;;;;;28.48;8.43;;;7.20;99.90;;;;;;5108208;28;20046;-89
2022/12/25 01:43:31;;;;;;;25.38;8.38;;;7.20;99.90;;;;;;5127158;27;20390;-89
2022/12/25 01:45:57;;;;;;;25.55;8.00;;;7.20;99.90;;;;;;5112666;28;20082;-89
2022/12/25 01:48:36;;;;;;;35.90;8.98;;;7.30;99.90;;;;;;5127959;27;20046;-88
2022/12/25 01:51:12;;;;;;;21.85;7.35;;;7.30;99.90;;;;;;5114612;27;20089;-89
2022/12/25 01:53:37;;;;;;;27.80;8.35;;;7.30;99.90;;;;;;5105206;27;20046;-89
2022/12/25 01:56:06;;;;;;;18.30;7.45;;;7.30;99.90;;;;;;5114480;27;20054;-89
2022/12/25 01:58:33;;;;;;;29.85;8.38;;;7.30;99.90;;;;;;5132347;27;20424;-89
2022/12/25 02:00:59;;;;;;;28.13;8.18;;;7.30;99.90;;;;;;5096833;28;20039;-89
2022/12/25 02:03:25;;;;;;;27.58;8.88;;;7.30;99.90;;;;;;5101386;27;20431;-89
2022/12/25 02:05:51;;;;;;;29.17;8.85;;;7.40;99.90;;;;;;5113530;27;20051;-89
2022/12/25 02:08:19;;;;;;;24.75;8.15;;;7.40;99.90;;;;;;5114623;27;20046;-89
2022/12/25 02:10:45;;;;;;;33.22;8.88;;;7.40;99.90;;;;;;5131826;27;20039;-89
2022/12/25 02:13:14;;;;;;;24.45;8.10;;;7.40;99.90;;;;;;5094350;28;20088;-89
2022/12/25 02:16:02;;;;;;;20.50;7.40;;;7.40;99.90;;;;;;5093860;28;20036;-89
2022/12/25 02:18:44;;;;;;;26.83;8.15;;;7.50;99.90;;;;;;5098785;28;20076;-89
2022/12/25 02:21:29;;;;;;;27.27;7.88;;;7.50;99.90;;;;;;5094000;28;20404;-89
2022/12/25 02:24:32;;;;;;;27.92;8.38;;;7.50;99.90;;;;;;5108715;27;20404;-89
2022/12/25 02:27:07;;;;;;;;;;;7.60;99.90;;;;;;5059212;27;20047;-89
2022/12/25 02:29:41;;;;;;;23.70;7.95;;;7.60;99.90;;;;;;5113741;27;19926;-89
2022/12/25 02:32:26;;;;;;;24.38;8.45;;;7.60;99.90;;;;;;5093450;28;20044;-89
2022/12/25 02:34:58;;;;;;;24.85;8.38;;;7.70;99.90;;;;;;5093901;28;20047;-89
2022/12/25 02:37:41;;;;;;;24.40;8.60;;;7.70;99.90;;;;;;5105465;27;20500;-89
2022/12/25 02:40:25;;;;;;;23.52;8.50;;;7.70;99.90;;;;;;5114033;28;20039;-89
2022/12/25 03:08:40;;;;;;;20.85;7.63;;;8.00;99.90;;;;;;5098348;28;20055;-89
2022/12/25 03:16:52;;;;;;;24.65;8.48;;;8.20;99.90;;;;;;5116385;27;20047;-89
2022/12/25 03:27:40;;;;;;;30.20;8.27;;;8.20;99.90;;;;;;5096957;28;20052;-89
2022/12/25 03:33:12;;;;;;;22.77;8.40;;;8.30;99.90;;;;;;5096722;28;20497;-89
2022/12/25 03:36:02;;;;;;;24.45;8.80;;;8.30;99.90;;;;;;5096966;28;20467;-89
2022/12/25 04:37:07;;;;;;;29.25;10.20;;;8.70;99.90;;;;;;5114605;28;20099;-89
2022/12/25 04:39:33;;;;;;;32.50;10.13;;;8.70;99.90;;;;;;5115078;28;20039;-89
2022/12/25 04:41:59;;;;;;;24.58;10.60;;;8.70;99.90;;;;;;5104133;28;20393;-89
2022/12/25 04:44:25;;;;;;;27.95;10.35;;;8.80;99.90;;;;;;5111467;28;20047;-89
2022/12/25 04:46:51;;;;;;;25.73;10.55;;;8.80;99.90;;;;;;5114362;28;20044;-89
2022/12/25 04:49:16;;;;;;;27.23;10.43;;;8.80;99.90;;;;;;5101167;28;20043;-89
2022/12/25 04:51:42;;;;;;;26.08;11.45;;;8.80;99.90;;;;;;5094497;28;20069;-89
2022/12/25 04:54:08;;;;;;;27.38;9.95;;;8.90;99.90;;;;;;5063370;28;1083579;-89
2022/12/25 04:56:34;;;;;;;22.65;10.25;;;8.90;99.90;;;;;;5095537;28;20074;-89
2022/12/25 04:58:59;;;;;;;25.50;9.52;;;8.90;99.90;;;;;;5096961;28;20094;-89
2022/12/25 05:01:25;;;;;;;22.17;9.20;;;8.90;99.90;;;;;;5094885;28;20101;-89
2022/12/25 05:03:51;;;;;;;25.65;9.13;;;8.90;99.90;;;;;;5095332;28;20392;-90
2022/12/25 05:06:16;;;;;;;18.73;8.45;;;8.90;99.90;;;;;;5104226;27;20480;-89
2022/12/25 05:08:42;;;;;;;26.42;10.30;;;9.00;99.90;;;;;;5115823;27;20064;-89
2022/12/25 05:11:11;;;;;;;27.80;10.50;;;9.00;99.90;;;;;;5115170;27;20035;-89
2022/12/25 05:13:37;;;;;;;26.77;9.73;;;9.00;99.90;;;;;;5096210;28;20044;-89
2022/12/25 05:16:13;;;;;;;22.38;9.88;;;9.00;99.90;;;;;;5094948;28;20043;-89
2022/12/25 05:18:38;;;;;;;25.05;9.73;;;9.00;99.90;;;;;;5101547;28;20046;-89
2022/12/25 05:21:04;;;;;;;25.50;10.10;;;9.00;99.90;;;;;;5095081;28;20118;-88
2022/12/25 05:23:30;;;;;;;25.23;10.88;;;9.00;99.90;;;;;;5093919;28;20043;-89
2022/12/25 05:25:56;;;;;;;23.48;10.50;;;9.10;99.90;;;;;;5114241;27;20046;-89
2022/12/25 05:28:22;;;;;;;22.58;11.32;;;9.10;99.90;;;;;;5115070;27;20412;-89
2022/12/25 05:30:47;;;;;;;21.15;9.70;;;9.10;99.90;;;;;;5113979;27;20043;-89
2022/12/25 05:33:13;;;;;;;22.45;10.32;;;9.10;99.90;;;;;;5097766;27;20095;-89
2022/12/25 05:35:40;;;;;;;26.77;12.32;;;9.10;99.90;;;;;;5114899;27;20489;-89
2022/12/25 05:38:06;;;;;;;28.73;12.30;;;9.20;99.90;;;;;;5104096;28;20490;-89
2022/12/25 05:40:33;;;;;;;25.67;11.75;;;9.20;99.90;;;;;;5094833;28;20402;-90
2022/12/25 05:42:58;;;;;;;29.25;12.27;;;9.20;99.90;;;;;;5101841;27;20115;-89
2022/12/25 05:45:24;;;;;;;23.42;11.77;;;9.20;99.90;;;;;;5094673;28;20097;-89
2022/12/25 05:47:50;;;;;;;24.20;11.35;;;9.30;99.90;;;;;;5094471;28;20051;-89
2022/12/25 05:50:15;;;;;;;24.10;11.68;;;9.30;99.90;;;;;;5102038;28;20062;-89
2022/12/25 05:52:41;;;;;;;27.75;12.00;;;9.30;99.90;;;;;;5094512;28;20047;-89
2022/12/25 05:55:07;;;;;;;28.35;11.05;;;9.30;99.90;;;;;;5094110;28;20408;-89
2022/12/25 05:57:32;;;;;;;24.85;11.48;;;9.30;99.90;;;;;;5127922;27;20099;-89
2022/12/25 05:59:58;;;;;;;22.15;10.10;;;9.30;99.90;;;;;;5114454;27;20488;-89
2022/12/25 06:02:24;;;;;;;22.52;11.15;;;9.30;99.90;;;;;;5105103;28;20035;-89
2022/12/25 06:04:50;;;;;;;26.15;11.25;;;9.30;99.90;;;;;;5093946;28;20052;-89
2022/12/25 06:07:15;;;;;;;23.45;10.48;;;9.40;99.90;;;;;;5094111;28;20074;-89
2022/12/25 06:09:44;;;;;;;23.08;11.70;;;9.40;99.90;;;;;;5101870;27;20122;-89
2022/12/25 06:12:09;;;;;;;23.17;11.52;;;9.40;99.90;;;;;;5114258;27;20117;-89
2022/12/25 06:14:35;;;;;;;20.48;10.85;;;9.40;99.90;;;;;;5114041;27;20051;-89
2022/12/25 06:17:01;;;;;;;23.95;10.45;;;9.40;99.90;;;;;;5096781;27;20039;-89
2022/12/25 06:19:26;;;;;;;23.45;10.95;;;9.40;99.90;;;;;;5114174;27;20046;-89
2022/12/25 06:21:53;;;;;;;20.92;10.90;;;9.40;99.90;;;;;;5122171;27;20197;-89
2022/12/25 06:24:22;;;;;;;22.70;10.10;;;9.40;99.90;;;;;;5093643;28;20048;-90
2022/12/25 06:26:48;;;;;;;22.67;9.70;;;9.40;99.90;;;;;;5112791;27;20063;-89
2022/12/25 06:29:14;;;;;;;18.23;8.77;;;9.40;99.90;;;;;;5093801;28;20046;-89
2022/12/25 06:31:39;;;;;;;19.08;8.68;;;9.50;99.90;;;;;;5101213;28;20437;-90
2022/12/25 06:34:05;;;;;;;18.02;8.55;;;9.40;99.90;;;;;;5110393;28;20031;-90
2022/12/25 06:36:31;;;;;;;22.42;9.25;;;9.50;99.90;;;;;;5113066;27;20184;-90
2022/12/25 06:38:59;;;;;;;20.05;8.65;;;9.50;99.90;;;;;;5112673;27;20035;-90
2022/12/25 06:41:26;;;;;;;21.00;8.57;;;9.40;99.90;;;;;;5113388;27;20047;-89
2022/12/25 06:43:54;;;;;;;21.00;8.50;;;9.50;99.90;;;;;;5106606;27;20066;-89
2022/12/25 06:46:21;;;;;;;17.00;8.23;;;9.50;99.90;;;;;;5096412;27;20050;-89
2022/12/25 06:48:48;;;;;;;18.13;8.40;;;9.40;99.90;;;;;;5113413;28;20100;-89
2022/12/25 06:51:22;;;;;;;17.80;8.30;;;9.50;99.90;;;;;;5112744;28;20059;-89
2022/12/25 06:53:48;;;;;;;26.73;8.80;;;9.40;99.90;;;;;;5113396;28;20088;-89
2022/12/25 06:56:16;;;;;;;21.38;8.23;;;9.40;99.90;;;;;;5107858;28;20069;-89
2022/12/25 06:58:47;;;;;;;15.57;7.15;;;9.40;99.90;;;;;;5111252;28;20460;-89
2022/12/25 07:01:37;;;;;;;17.58;7.38;;;9.40;99.90;;;;;;5100444;28;20395;-89
2022/12/25 07:04:06;;;;;;;20.13;7.85;;;9.40;99.90;;;;;;5110998;28;20035;-89
2022/12/25 07:06:33;;;;;;;20.27;8.48;;;9.30;99.90;;;;;;5111011;28;20459;-89
2022/12/25 07:08:58;;;;;;;18.13;7.63;;;9.40;99.90;;;;;;5110392;28;20035;-88
2022/12/25 07:11:25;;;;;;;18.77;7.88;;;9.30;99.90;;;;;;5113245;28;20087;-89
2022/12/25 07:13:50;;;;;;;19.55;7.60;;;9.30;99.90;;;;;;5112493;28;20561;-88
2022/12/25 07:16:16;;;;;;;12.32;6.22;;;9.30;99.90;;;;;;5112604;28;20130;-89
2022/12/25 07:18:42;;;;;;;18.92;6.72;;;9.30;99.90;;;;;;5113033;28;20047;-89
2022/12/25 07:21:13;;;;;;;15.93;6.65;;;9.30;99.90;;;;;;5129736;28;20118;-89
2022/12/25 07:23:39;;;;;;;14.95;6.05;;;9.30;99.90;;;;;;5113024;28;20039;-90
2022/12/25 07:26:05;;;;;;;16.80;6.57;;;9.30;99.90;;;;;;5111929;28;20358;-89
2022/12/25 07:28:31;;;;;;;18.83;7.15;;;9.30;99.90;;;;;;5112685;28;20058;-89
2022/12/25 07:31:06;;;;;;;16.20;6.10;;;9.30;99.90;;;;;;5113466;28;20039;-89
2022/12/25 07:33:33;;;;;;;18.25;7.10;;;9.30;99.90;;;;;;5108303;28;20047;-88
2022/12/25 07:35:59;;;;;;;17.23;6.93;;;9.30;99.90;;;;;;5109510;28;20122;-89
2022/12/25 07:38:24;;;;;;;16.58;6.63;;;9.20;99.90;;;;;;5120084;28;20122;-89
2022/12/25 07:40:50;;;;;;;14.65;6.03;;;9.30;99.90;;;;;;5112881;28;20071;-89
2022/12/25 07:43:15;;;;;;;20.15;7.00;;;9.30;99.90;;;;;;5111023;28;20039;-89
2022/12/25 07:45:41;;;;;;;14.05;6.25;;;9.30;99.90;;;;;;5092786;28;20035;-89
2022/12/25 07:48:06;;;;;;;16.80;6.30;;;9.30;99.90;;;;;;5093762;28;20119;-89
2022/12/25 07:50:33;;;;;;;12.68;5.82;;;9.30;99.90;;;;;;5106581;27;20047;-89
2022/12/25 07:52:58;;;;;;;13.88;6.13;;;9.30;99.90;;;;;;5134603;27;20404;-89
2022/12/25 07:55:24;;;;;;;17.42;6.65;;;9.30;99.90;;;;;;5116410;27;20519;-89
2022/12/25 07:57:50;;;;;;;14.57;6.20;;;9.30;99.90;;;;;;5110714;28;20123;-89
2022/12/25 08:00:16;;;;;;;14.63;6.10;;;9.30;99.90;;;;;;5112973;28;20035;-89
2022/12/25 08:02:42;;;;;;;18.00;6.05;;;9.30;99.90;;;;;;5117866;27;20058;-89
2022/12/25 08:05:08;;;;;;;12.80;5.55;;;9.30;99.90;;;;;;5116305;27;20488;-89
2022/12/25 08:07:37;;;;;;;15.95;5.88;;;9.30;99.90;;;;;;5099329;27;20171;-88
2022/12/25 08:10:03;;;;;;;15.82;5.75;;;9.30;99.90;;;;;;5115199;27;20047;-89
2022/12/25 08:12:29;;;;;;;13.52;5.18;;;9.30;99.90;;;;;;5116151;27;20242;-89
2022/12/25 08:14:54;;;;;;;14.70;5.47;;;9.20;99.90;;;;;;5115188;27;20560;-88
2022/12/25 08:17:20;;;;;;;17.65;5.72;;;9.30;99.90;;;;;;5098747;27;20115;-88
2022/12/25 08:19:45;;;;;;;13.50;5.90;;;9.20;99.90;;;;;;5116066;27;20077;-89
2022/12/25 08:22:11;;;;;;;17.80;5.88;;;9.30;99.90;;;;;;5115471;27;20035;-89
2022/12/25 08:24:36;;;;;;;10.82;5.53;;;9.30;99.90;;;;;;5099100;28;20382;-89
2022/12/25 08:27:02;;;;;;;13.02;5.80;;;9.30;99.90;;;;;;5095226;27;20128;-89
2022/12/25 08:29:28;;;;;;;14.20;5.90;;;9.30;99.90;;;;;;5118991;27;20096;-89
2022/12/25 08:31:54;;;;;;;14.57;5.55;;;9.30;99.90;;;;;;5123738;27;20042;-89
2022/12/25 08:34:20;;;;;;;12.60;5.55;;;9.30;99.90;;;;;;5122510;27;20043;-89
2022/12/25 08:36:46;;;;;;;15.15;5.60;;;9.30;99.90;;;;;;5130452;27;20377;-89
2022/12/25 08:39:12;;;;;;;15.00;5.32;;;9.30;99.90;;;;;;5119984;27;20041;-89
2022/12/25 08:41:37;;;;;;;15.60;6.05;;;9.30;99.90;;;;;;5115155;27;20031;-89
2022/12/25 08:44:04;;;;;;;12.18;5.95;;;9.30;99.90;;;;;;5111089;27;20053;-89
2022/12/25 08:46:30;;;;;;;14.80;5.95;;;9.40;99.90;;;;;;5094831;27;20042;-89
2022/12/25 08:48:56;;;;;;;15.75;5.82;;;9.40;99.90;;;;;;5133954;27;20035;-89
2022/12/25 08:51:23;;;;;;;18.15;6.93;;;9.40;99.90;;;;;;5108327;27;20082;-89
2022/12/25 08:53:51;;;;;;;15.60;6.05;;;9.50;99.90;;;;;;5115116;27;20118;-89
2022/12/25 08:56:18;;;;;;;17.13;5.03;;;9.50;99.90;;;;;;5114366;27;20828;-89
2022/12/25 08:58:45;;;;;;;15.68;5.68;;;9.50;99.90;;;;;;5113771;27;20039;-89
2022/12/25 09:01:11;;;;;;;16.17;5.88;;;9.50;99.90;;;;;;5133449;27;20051;-90
2022/12/25 09:03:37;;;;;;;15.07;6.53;;;9.60;99.90;;;;;;5132878;27;20091;-90
2022/12/25 09:06:09;;;;;;;15.57;5.50;;;9.60;99.90;;;;;;5115932;27;20043;-90
2022/12/25 09:08:35;;;;;;;12.95;5.70;;;9.60;99.90;;;;;;5115884;27;20478;-90
2022/12/25 09:11:05;;;;;;;13.05;5.10;;;9.60;99.90;;;;;;5125905;27;20118;-90
2022/12/25 09:13:31;;;;;;;17.95;6.43;;;9.60;99.90;;;;;;5095078;28;20078;-91
2022/12/25 09:15:57;;;;;;;10.50;5.15;;;9.70;99.90;;;;;;5100696;27;20040;-90
2022/12/25 09:18:23;;;;;;;17.25;5.80;;;9.70;99.90;;;;;;5115197;27;20450;-90
2022/12/25 09:21:07;;;;;;;13.60;5.60;;;9.70;99.90;;;;;;5133697;27;20038;-90
2022/12/25 09:23:33;;;;;;;14.55;4.90;;;9.70;99.90;;;;;;5104092;28;20095;-90
2022/12/25 09:26:00;;;;;;;13.60;5.20;;;9.70;99.90;;;;;;5094904;28;20074;-89
2022/12/25 09:28:26;;;;;;;14.10;5.55;;;9.80;99.90;;;;;;5112741;28;20031;-89
2022/12/25 09:30:52;;;;;;;14.38;5.28;;;9.80;99.90;;;;;;5094341;28;20515;-89
2022/12/25 09:33:19;;;;;;;16.02;5.90;;;9.80;99.90;;;;;;5077349;28;20058;-89
2022/12/25 09:36:10;;;;;;;14.07;5.53;;;9.80;99.90;;;;;;5110669;27;20050;-90
2022/12/25 09:38:41;;;;;;;16.67;5.53;;;9.80;99.90;;;;;;5133358;27;20450;-89
2022/12/25 09:41:22;;;;;;;14.32;5.07;;;9.80;99.90;;;;;;5094601;27;20487;-90
2022/12/25 09:43:56;;;;;;;13.48;5.13;;;9.90;99.90;;;;;;5094262;28;20039;-89
2022/12/25 09:46:26;;;;;;;15.90;5.60;;;9.90;99.90;;;;;;5104516;27;20046;-90
2022/12/25 09:49:04;;;;;;;15.70;5.63;;;9.90;99.90;;;;;;5114763;27;20047;-89
2022/12/25 09:51:36;;;;;;;17.73;6.35;;;9.90;99.90;;;;;;5115098;27;20042;-90
2022/12/25 09:54:28;;;;;;;12.65;5.13;;;9.90;99.90;;;;;;5113577;27;20046;-90
2022/12/25 09:56:54;;;;;;;15.63;5.43;;;10.00;99.90;;;;;;5114801;27;20156;-89
2022/12/25 09:59:26;;;;;;;12.73;5.20;;;9.90;99.90;;;;;;5109086;27;20051;-89
2022/12/25 10:02:02;;;;;;;16.37;5.40;;;10.00;99.90;;;;;;5114372;27;20038;-89
2022/12/25 10:04:57;;;;;;;12.65;5.53;;;10.00;99.90;;;;;;5132874;27;20047;-89
2022/12/25 10:07:42;;;;;;;12.35;5.90;;;10.00;99.90;;;;;;5126600;27;20038;-90
2022/12/25 10:10:24;;;;;;;13.90;5.38;;;10.00;99.90;;;;;;5114453;27;20039;-89
2022/12/25 10:13:17;;;;;;;10.13;4.45;;;10.00;99.90;;;;;;5110509;27;20047;-90
2022/12/25 10:15:58;;;;;;;13.77;5.07;;;10.00;99.90;;;;;;5117489;27;20121;-90
2022/12/25 10:18:36;;;;;;;14.13;5.68;;;10.10;99.90;;;;;;5119979;27;20095;-90
2022/12/25 10:21:04;;;;;;;14.95;5.50;;;10.10;99.90;;;;;;5120711;27;20460;-90
2022/12/25 10:23:35;;;;;;;13.68;4.93;;;10.10;99.90;;;;;;5134544;27;20043;-91
2022/12/25 10:26:03;;;;;;;13.43;5.53;;;10.10;99.90;;;;;;5126188;27;20537;-91
2022/12/25 10:28:42;;;;;;;12.75;4.90;;;10.10;99.90;;;;;;5093627;28;20562;-90
2022/12/25 10:31:23;;;;;;;13.77;5.60;;;10.10;99.90;;;;;;5110823;28;20559;-90
2022/12/25 10:33:51;;;;;;;13.50;5.53;;;10.10;99.90;;;;;;5092448;28;20451;-89
2022/12/25 10:36:19;;;;;;;12.18;5.00;;;10.10;99.90;;;;;;5093216;28;20052;-88
2022/12/25 10:38:46;;;;;;;10.65;5.15;;;10.20;99.90;;;;;;5104960;27;20039;-89
2022/12/25 10:41:24;;;;;;;13.57;5.32;;;10.20;99.90;;;;;;5113608;27;20428;-90
2022/12/25 10:43:53;;;;;;;11.95;5.40;;;10.20;99.90;;;;;;5111245;27;20491;-88
2022/12/25 10:46:21;;;;;;;12.57;5.10;;;10.20;99.90;;;;;;5113503;28;20404;-89
2022/12/25 10:48:54;;;;;;;13.80;5.63;;;10.20;99.90;;;;;;5109342;28;20039;-89
2022/12/25 10:51:33;;;;;;;14.55;4.63;;;10.20;99.90;;;;;;5131875;28;20079;-89
2022/12/25 10:54:00;;;;;;;11.65;4.78;;;10.20;99.90;;;;;;5131324;28;20385;-89
2022/12/25 10:56:26;;;;;;;11.88;4.45;;;10.20;99.90;;;;;;5097509;28;20057;-90
2022/12/25 10:59:04;;;;;;;11.15;4.75;;;10.30;99.90;;;;;;5092950;28;20114;-89
2022/12/25 11:01:30;;;;;;;10.63;3.97;;;10.20;99.90;;;;;;5095686;28;20036;-89
2022/12/25 11:03:55;;;;;;;10.70;4.75;;;10.30;99.90;;;;;;5112689;28;20136;-89
2022/12/25 11:06:30;;;;;;;11.88;4.45;;;10.30;99.90;;;;;;5113336;28;20050;-89
2022/12/25 11:08:59;;;;;;;14.88;4.95;;;10.30;99.90;;;;;;5128329;28;20043;-90
2022/12/25 11:11:26;;;;;;;11.80;4.55;;;10.30;99.90;;;;;;5113178;28;20058;-89
2022/12/25 11:14:02;;;;;;;12.63;5.18;;;10.30;99.90;;;;;;5106489;28;20039;-90
2022/12/25 11:16:37;;;;;;;12.25;5.13;;;10.30;99.90;;;;;;5131694;28;20043;-90
2022/12/25 11:19:21;;;;;;;12.15;4.47;;;10.30;99.90;;;;;;5108890;28;20049;-89
2022/12/25 11:21:55;;;;;;;12.38;4.88;;;10.30;99.90;;;;;;5113316;27;20125;-90
2022/12/25 11:24:25;;;;;;;10.85;4.22;;;10.30;99.90;;;;;;5111164;27;20074;-89
2022/12/25 11:26:53;;;;;;;11.68;4.65;;;10.30;99.90;;;;;;5099072;28;20035;-90
2022/12/25 11:29:47;;;;;;;10.63;4.50;;;10.30;99.90;;;;;;5096760;28;20077;-89
2022/12/25 11:32:31;;;;;;;12.25;4.82;;;10.30;99.90;;;;;;5100053;28;20054;-90
2022/12/25 11:34:58;;;;;;;14.60;5.22;;;10.30;99.90;;;;;;5096175;28;20075;-89
2022/12/25 11:37:37;;;;;;;12.80;4.90;;;10.30;99.90;;;;;;5113086;27;20039;-89
2022/12/25 11:40:03;;;;;;;12.98;5.07;;;10.40;99.90;;;;;;5135016;27;20042;-89
2022/12/25 11:42:36;;;;;;;11.00;5.32;;;10.40;99.90;;;;;;5098398;27;20039;-89
2022/12/25 11:45:11;;;;;;;11.80;5.05;;;10.40;99.90;;;;;;5135042;27;20031;-89
2022/12/25 11:47:45;;;;;;;14.75;5.57;;;10.40;99.90;;;;;;5114346;27;20066;-89
2022/12/25 11:50:30;;;;;;;14.05;4.97;;;10.40;99.90;;;;;;5099173;28;20039;-90
2022/12/25 11:53:00;;;;;;;14.00;5.80;;;10.40;99.90;;;;;;5100648;27;20651;-90
2022/12/25 11:55:36;;;;;;;15.25;5.07;;;10.40;99.90;;;;;;5116250;27;20043;-89
2022/12/25 11:58:24;;;;;;;12.85;5.13;;;10.40;99.90;;;;;;5116132;27;20050;-89
2022/12/25 12:00:53;;;;;;;12.30;6.15;;;10.40;99.90;;;;;;5112204;28;20048;-90
2022/12/25 12:03:33;;;;;;;15.07;6.35;;;10.40;99.90;;;;;;5119250;27;20039;-89
2022/12/25 12:06:09;;;;;;;14.13;6.32;;;10.40;99.90;;;;;;5111244;27;20098;-89
2022/12/25 12:08:35;;;;;;;15.57;6.40;;;10.40;99.90;;;;;;5135096;27;20095;-89
2022/12/25 12:11:18;;;;;;;12.43;5.82;;;10.40;99.90;;;;;;5102457;28;20035;-89
2022/12/25 12:14:03;;;;;;;13.77;5.88;;;10.40;99.90;;;;;;5095459;28;20738;-89
2022/12/25 12:16:28;;;;;;;11.90;5.40;;;10.40;99.90;;;;;;5100990;27;20047;-89
2022/12/25 12:18:54;;;;;;;13.02;6.05;;;10.40;99.90;;;;;;5095712;28;20047;-89
2022/12/25 12:21:22;;;;;;;14.63;6.50;;;10.40;99.90;;;;;;5097651;27;20115;-90
2022/12/25 12:24:02;;;;;;;14.73;5.93;;;10.40;99.90;;;;;;5085011;28;20044;-90
2022/12/25 12:26:30;;;;;;;12.68;6.35;;;10.40;99.90;;;;;;5136814;27;20452;-89
2022/12/25 12:28:59;;;;;;;13.85;6.68;;;10.40;99.90;;;;;;5129166;27;20127;-89
2022/12/25 12:31:42;;;;;;;12.50;6.13;;;10.40;99.90;;;;;;5110398;27;20096;-89
2022/12/25 12:34:34;;;;;;;;;;;10.50;99.90;;;;;;5133232;27;20031;-89
2022/12/25 12:37:06;;;;;;;13.48;5.43;;;10.50;99.90;;;;;;5118844;27;19922;-89
2022/12/25 12:39:38;;;;;;;12.55;5.65;;;10.40;99.90;;;;;;5095692;28;20044;-90
2022/12/25 12:42:19;;;;;;;14.63;5.93;;;10.50;99.90;;;;;;5103018;28;20051;-89
2022/12/25 12:44:47;;;;;;;13.95;5.85;;;10.50;99.90;;;;;;5095357;28;20493;-89
2022/12/25 12:47:32;;;;;;;12.63;6.75;;;10.50;99.90;;;;;;5119786;27;20396;-90
2022/12/25 12:50:00;;;;;;;12.20;5.97;;;10.50;99.90;;;;;;5094062;28;20088;-90
2022/12/25 12:52:32;;;;;;;12.75;5.40;;;10.50;99.90;;;;;;5095336;28;20036;-89
2022/12/25 12:55:05;;;;;;;13.70;5.38;;;10.50;99.90;;;;;;5105356;27;20046;-90
2022/12/25 12:57:38;;;;;;;13.77;5.85;;;10.50;99.90;;;;;;5115784;27;20047;-90
2022/12/25 13:00:05;;;;;;;10.75;5.80;;;10.50;99.90;;;;;;5115185;27;20075;-90
2022/12/25 13:02:51;;;;;;;11.05;5.30;;;10.50;99.90;;;;;;5083048;28;20035;-89
2022/12/25 13:05:22;;;;;;;11.98;5.82;;;10.40;99.90;;;;;;5094985;28;20122;-89
2022/12/25 13:08:09;;;;;;;10.05;5.35;;;10.50;99.90;;;;;;5112139;27;20047;-90
2022/12/25 13:10:37;;;;;;;14.75;5.72;;;10.40;99.90;;;;;;5115359;27;20047;-90
2022/12/25 13:13:34;;;;;;;12.60;5.45;;;10.40;99.90;;;;;;5101780;28;20425;-90
2022/12/25 13:16:00;;;;;;;12.23;5.10;;;10.40;99.90;;;;;;5103867;28;20160;-90
2022/12/25 13:18:26;;;;;;;12.55;6.32;;;10.40;99.90;;;;;;5102203;28;20261;-90
2022/12/25 13:20:55;;;;;;;18.85;11.27;;;10.40;99.90;;;;;;5094683;28;20031;-91
2022/12/25 13:23:32;;;;;;;16.30;6.78;;;10.40;99.90;;;;;;5094301;28;20043;-90
2022/12/25 13:26:11;;;;;;;13.50;6.38;;;10.40;99.90;;;;;;5112926;27;20047;-90
2022/12/25 13:28:37;;;;;;;12.43;6.40;;;10.40;99.90;;;;;;5113350;27;20517;-89
2022/12/25 13:31:27;;;;;;;12.98;5.97;;;10.30;99.90;;;;;;5099683;28;20127;-90
2022/12/25 13:34:03;;;;;;;16.25;6.85;;;10.30;99.90;;;;;;5111876;28;20078;-90
2022/12/25 13:36:34;;;;;;;16.45;7.13;;;10.30;99.90;;;;;;5104562;27;20043;-90
2022/12/25 13:39:00;;;;;;;11.82;6.30;;;10.30;99.90;;;;;;5122027;27;20114;-89
2022/12/25 13:44:26;;;;;;;11.05;5.38;;;10.30;99.90;;;;;;5103258;27;20132;-89
2022/12/25 13:46:51;;;;;;;13.43;6.75;;;10.20;99.90;;;;;;5131191;27;20039;-89
2022/12/25 13:49:20;;;;;;;9.77;5.88;;;10.20;99.90;;;;;;5133825;27;20544;-90
2022/12/25 13:51:47;;;;;;;14.48;6.68;;;10.20;99.90;;;;;;5123649;27;20045;-90
2022/12/25 13:54:14;;;;;;;12.18;6.03;;;10.20;99.90;;;;;;5101853;27;20070;-89
2022/12/25 13:56:53;;;;;;;13.35;7.28;;;10.20;99.90;;;;;;5103326;27;20063;-90
2022/12/25 13:59:24;;;;;;;13.45;7.35;;;10.20;99.90;;;;;;5104930;27;20035;-90
2022/12/25 14:01:51;;;;;;;13.90;7.28;;;10.20;99.90;;;;;;5108994;27;20047;-90
2022/12/25 14:04:21;;;;;;;12.18;6.53;;;10.20;99.90;;;;;;5114430;27;20054;-89
2022/12/25 14:06:47;;;;;;;16.00;6.93;;;10.20;99.90;;;;;;5130664;27;20045;-90
2022/12/25 14:09:13;;;;;;;15.68;7.35;;;10.20;99.90;;;;;;5114492;27;20073;-90
2022/12/25 14:11:42;;;;;;;12.93;6.82;;;10.20;99.90;;;;;;5114488;27;20157;-90
2022/12/25 14:14:18;;;;;;;15.77;12.20;;;10.20;99.90;;;;;;5121995;27;20046;-89
2022/12/25 14:16:48;;;;;;;14.07;7.78;;;10.20;99.90;;;;;;5094067;28;20363;-90
2022/12/25 14:19:31;;;;;;;15.43;7.88;;;10.20;99.90;;;;;;5094519;27;20036;-90
2022/12/25 14:22:15;;;;;;;13.00;7.95;;;10.20;99.90;;;;;;5113854;27;20063;-89
2022/12/25 14:24:40;;;;;;;15.18;8.13;;;10.10;99.90;;;;;;5114229;27;20054;-90
2022/12/25 14:27:21;;;;;;;16.95;7.38;;;10.10;99.90;;;;;;5109273;28;20065;-90
2022/12/25 14:29:49;;;;;;;14.05;7.47;;;10.10;99.90;;;;;;5112030;28;20042;-89
2022/12/25 14:32:18;;;;;;;14.25;7.38;;;10.10;99.90;;;;;;5094058;28;20043;-90
2022/12/25 14:34:46;;;;;;;18.52;7.97;;;10.10;99.90;;;;;;5117461;27;20052;-90
2022/12/25 14:37:19;;;;;;;11.95;7.55;;;10.10;99.90;;;;;;5093681;28;20035;-90
2022/12/25 14:39:52;;;;;;;12.80;6.40;;;10.10;99.90;;;;;;5100970;27;20561;-90
2022/12/25 14:42:30;;;;;;;15.38;6.97;;;10.10;99.90;;;;;;5111575;28;20104;-89
2022/12/25 14:44:58;;;;;;;14.80;7.45;;;10.10;99.90;;;;;;5093623;28;20039;-90
2022/12/25 14:47:25;;;;;;;12.60;7.88;;;10.10;99.90;;;;;;5093637;28;20082;-90